createdAt,value
2022-10-19T00:01:22.184Z,18.43
2022-10-19T00:03:53.509Z,18.43
2022-10-19T00:06:28.824Z,18.41
2022-10-19T00:09:09.110Z,18.37
2022-10-19T00:11:41.094Z,18.34
2022-10-19T00:14:14.102Z,18.28
2022-10-19T00:16:43.521Z,18.27
2022-10-19T00:19:23.358Z,18.22
2022-10-19T00:21:51.649Z,18.24
2022-10-19T00:24:19.957Z,18.27
2022-10-19T00:26:47.787Z,18.31
2022-10-19T00:29:16.078Z,18.34
2022-10-19T00:31:44.003Z,18.39
2022-10-19T00:34:11.997Z,18.41
2022-10-19T00:36:41.433Z,18.38
2022-10-19T00:39:14.985Z,18.36
2022-10-19T00:41:46.776Z,18.41
2022-10-19T00:44:15.930Z,18.44
2022-10-19T00:46:50.620Z,18.41
2022-10-19T00:49:24.905Z,18.40
2022-10-19T00:52:01.899Z,18.39
2022-10-19T00:54:32.504Z,18.39
2022-10-19T00:57:00.784Z,18.36
2022-10-19T00:59:31.855Z,18.35
2022-10-19T01:02:03.586Z,18.32
2022-10-19T01:04:38.739Z,18.33
2022-10-19T01:07:08.270Z,18.35
2022-10-19T01:09:36.076Z,18.38
2022-10-19T01:12:43.797Z,18.42
2022-10-19T01:15:46.910Z,18.48
2022-10-19T01:18:50.642Z,18.49
2022-10-19T01:21:34.431Z,18.54
2022-10-19T01:24:30.275Z,18.54
2022-10-19T01:27:22.358Z,18.58
2022-10-19T01:30:00.809Z,18.59
2022-10-19T01:32:38.201Z,18.59
2022-10-19T01:35:22.832Z,18.63
2022-10-19T01:38:19.168Z,18.62
2022-10-19T01:40:59.284Z,18.66
2022-10-19T01:43:44.591Z,18.71
2022-10-19T01:46:49.720Z,18.70
2022-10-19T01:49:53.567Z,18.71
2022-10-19T01:52:24.046Z,18.70
2022-10-19T01:54:58.033Z,18.68
2022-10-19T01:57:34.377Z,18.70
2022-10-19T02:00:07.619Z,18.72
2022-10-19T02:02:47.421Z,18.74
2022-10-19T02:05:17.369Z,18.70
2022-10-19T02:07:50.764Z,18.71
2022-10-19T02:10:20.312Z,18.72
2022-10-19T02:12:49.327Z,18.72
2022-10-19T02:15:22.497Z,18.72
2022-10-19T02:17:57.277Z,18.75
2022-10-19T02:20:27.219Z,18.73
2022-10-19T02:22:55.252Z,18.78
2022-10-19T02:25:24.875Z,18.77
2022-10-19T02:27:53.967Z,18.78
2022-10-19T02:30:22.454Z,18.80
2022-10-19T02:32:51.091Z,18.81
2022-10-19T02:35:19.005Z,18.81
2022-10-19T02:37:47.004Z,18.82
2022-10-19T02:40:15.113Z,18.84
2022-10-19T02:42:51.131Z,18.86
2022-10-19T02:45:21.002Z,18.91
2022-10-19T02:47:58.397Z,18.86
2022-10-19T02:50:27.413Z,18.80
2022-10-19T02:52:55.198Z,18.72
2022-10-19T02:55:23.028Z,18.70
2022-10-19T02:57:50.905Z,18.68
2022-10-19T03:00:18.799Z,18.63
2022-10-19T03:02:48.283Z,18.60
2022-10-19T03:05:16.140Z,18.58
2022-10-19T03:07:43.936Z,18.54
2022-10-19T03:10:11.753Z,18.56
2022-10-19T03:12:39.604Z,18.57
2022-10-19T03:15:08.440Z,18.55
2022-10-19T03:17:36.401Z,18.55
2022-10-19T03:20:05.309Z,18.51
2022-10-19T03:22:33.081Z,18.50
2022-10-19T03:25:00.894Z,18.52
2022-10-19T03:27:28.677Z,18.58
2022-10-19T03:29:56.475Z,18.60
2022-10-19T03:32:24.272Z,18.60
2022-10-19T03:34:52.121Z,18.59
2022-10-19T03:37:19.991Z,18.60
2022-10-19T03:39:47.837Z,18.61
2022-10-19T03:42:15.659Z,18.58
2022-10-19T03:44:43.469Z,18.55
2022-10-19T03:47:11.227Z,18.56
2022-10-19T03:49:40.334Z,18.59
2022-10-19T03:52:10.132Z,18.57
2022-10-19T03:54:38.161Z,18.56
2022-10-19T03:57:06.003Z,18.59
2022-10-19T03:59:33.865Z,18.61
2022-10-19T04:02:01.708Z,18.64
2022-10-19T04:04:29.544Z,18.68
2022-10-19T04:06:57.342Z,18.70
2022-10-19T04:09:25.145Z,18.68
2022-10-19T04:11:53.023Z,18.73
2022-10-19T04:14:32.164Z,18.75
2022-10-19T04:17:02.656Z,18.75
2022-10-19T04:19:31.489Z,18.74
2022-10-19T04:21:59.823Z,18.68
2022-10-19T04:24:28.247Z,18.66
2022-10-19T04:26:56.857Z,18.59
2022-10-19T04:29:29.674Z,18.54
2022-10-19T04:31:59.842Z,18.50
2022-10-19T04:34:27.761Z,18.46
2022-10-19T04:36:59.228Z,18.46
2022-10-19T04:39:27.681Z,18.48
2022-10-19T04:41:55.536Z,18.52
2022-10-19T04:46:56.276Z,18.53
2022-10-19T04:49:24.144Z,18.52
2022-10-19T04:51:51.910Z,18.57
2022-10-19T04:54:19.709Z,18.56
2022-10-19T04:56:47.893Z,18.55
2022-10-19T04:59:15.748Z,18.56
2022-10-19T05:01:46.325Z,18.56
2022-10-19T05:04:15.354Z,18.55
2022-10-19T05:06:43.201Z,18.55
2022-10-19T05:09:11.157Z,18.56
2022-10-19T05:11:39.053Z,18.58
2022-10-19T05:14:06.961Z,18.60
2022-10-19T05:16:34.870Z,18.59
2022-10-19T05:19:03.157Z,18.59
2022-10-19T05:21:31.079Z,18.60
2022-10-19T05:23:59.146Z,18.59
2022-10-19T05:26:29.138Z,18.60
2022-10-19T05:29:04.802Z,18.58
2022-10-19T05:31:34.741Z,18.58
2022-10-19T05:34:04.105Z,18.59
2022-10-19T05:36:35.077Z,18.56
2022-10-19T05:39:13.830Z,18.55
2022-10-19T05:41:46.516Z,18.52
2022-10-19T05:44:21.229Z,18.50
2022-10-19T05:46:51.420Z,18.47
2022-10-19T05:49:22.155Z,18.47
2022-10-19T05:51:50.676Z,18.46
2022-10-19T05:54:21.766Z,18.44
2022-10-19T05:56:51.731Z,18.42
2022-10-19T05:59:21.797Z,18.41
2022-10-19T06:01:49.733Z,18.41
2022-10-19T06:06:50.429Z,18.46
2022-10-19T06:09:18.300Z,18.45
2022-10-19T06:11:46.155Z,18.44
2022-10-19T06:14:16.382Z,18.47
2022-10-19T06:16:46.060Z,18.48
2022-10-19T06:19:14.337Z,18.46
2022-10-19T06:21:45.828Z,18.47
2022-10-19T06:24:14.114Z,18.48
2022-10-19T06:26:41.962Z,18.48
2022-10-19T06:29:10.182Z,18.51
2022-10-19T06:31:38.473Z,18.52
2022-10-19T06:34:07.078Z,18.53
2022-10-19T06:36:35.675Z,18.53
2022-10-19T06:39:04.350Z,18.51
2022-10-19T06:41:32.648Z,18.53
2022-10-19T06:44:17.452Z,18.55
2022-10-19T06:46:45.215Z,18.48
2022-10-19T06:49:15.447Z,18.52
2022-10-19T06:51:43.297Z,18.53
2022-10-19T06:54:11.106Z,18.59
2022-10-19T06:56:38.972Z,18.58
2022-10-19T06:59:06.892Z,18.59
2022-10-19T07:01:34.674Z,18.63
2022-10-19T07:04:02.934Z,18.69
2022-10-19T07:06:30.772Z,18.71
2022-10-19T07:08:58.570Z,18.77
2022-10-19T07:11:26.364Z,18.80
2022-10-19T07:13:54.408Z,18.84
2022-10-19T07:16:22.686Z,18.84
2022-10-19T07:18:53.210Z,18.89
2022-10-19T07:21:23.233Z,18.94
2022-10-19T07:23:51.905Z,18.99
2022-10-19T07:26:27.004Z,19.05
2022-10-19T07:28:57.514Z,19.06
2022-10-19T07:31:28.180Z,19.07
2022-10-19T07:33:59.288Z,19.11
2022-10-19T07:36:29.127Z,19.15
2022-10-19T07:38:58.265Z,19.21
2022-10-19T07:41:26.957Z,19.21
2022-10-19T07:43:55.273Z,19.24
2022-10-19T07:46:27.232Z,19.27
2022-10-19T07:48:55.889Z,19.32
2022-10-19T07:51:23.997Z,19.32
2022-10-19T07:53:52.088Z,19.35
2022-10-19T07:56:26.027Z,19.38
2022-10-19T07:58:57.255Z,19.42
2022-10-19T08:01:30.012Z,19.43
2022-10-19T08:06:47.902Z,19.51
2022-10-19T08:09:40.028Z,19.52
2022-10-19T08:12:05.406Z,19.56
2022-10-19T08:14:33.994Z,19.56
2022-10-19T08:17:02.030Z,19.54
2022-10-19T08:19:29.866Z,19.54
2022-10-19T08:21:57.674Z,19.51
2022-10-19T08:24:25.501Z,19.46
2022-10-19T08:26:53.384Z,19.40
2022-10-19T08:29:21.949Z,19.37
2022-10-19T08:31:50.194Z,19.40
2022-10-19T08:34:18.205Z,19.42
2022-10-19T08:36:47.330Z,19.44
2022-10-19T08:39:16.382Z,19.45
2022-10-19T08:42:19.396Z,19.45
2022-10-19T08:45:14.627Z,19.50
2022-10-19T08:48:05.775Z,19.51
2022-10-19T08:50:46.681Z,19.52
2022-10-19T08:53:49.499Z,19.49
2022-10-19T08:56:51.985Z,19.50
2022-10-19T08:59:48.626Z,19.48
2022-10-19T09:02:58.284Z,19.43
2022-10-19T09:05:46.940Z,19.44
2022-10-19T09:08:17.789Z,19.43
2022-10-19T09:10:50.908Z,19.44
2022-10-19T09:14:03.790Z,19.46
2022-10-19T09:16:30.567Z,19.51
2022-10-19T09:18:58.466Z,19.53
2022-10-19T09:21:57.047Z,19.57
2022-10-19T09:24:46.432Z,19.60
2022-10-19T09:27:23.065Z,19.61
2022-10-19T09:30:02.520Z,19.67
2022-10-19T09:32:37.627Z,19.71
2022-10-19T09:35:28.150Z,19.77
2022-10-19T09:37:56.681Z,19.81
2022-10-19T09:40:30.138Z,19.85
2022-10-19T09:42:59.060Z,19.88
2022-10-19T09:45:57.324Z,19.93
2022-10-19T09:48:25.013Z,19.98
2022-10-19T09:51:01.660Z,20.00
2022-10-19T09:53:30.866Z,20.02
2022-10-19T09:56:09.081Z,20.05
2022-10-19T09:58:46.742Z,20.11
2022-10-19T10:01:43.130Z,20.16
2022-10-19T10:04:17.830Z,20.19
2022-10-19T10:06:49.023Z,20.18
2022-10-19T10:09:29.915Z,20.22
2022-10-19T10:12:00.413Z,20.24
2022-10-19T10:14:33.896Z,20.25
2022-10-19T10:17:11.976Z,20.26
2022-10-19T10:20:24.100Z,20.24
2022-10-19T10:23:07.163Z,20.30
2022-10-19T10:25:56.737Z,20.22
2022-10-19T10:28:31.443Z,20.18
2022-10-19T10:31:16.937Z,20.19
2022-10-19T10:34:12.140Z,20.21
2022-10-19T10:36:55.100Z,20.22
2022-10-19T10:39:27.329Z,20.17
2022-10-19T10:42:07.261Z,20.20
2022-10-19T10:47:40.272Z,20.34
2022-10-19T10:50:46.517Z,20.36
2022-10-19T10:53:46.507Z,20.39
2022-10-19T10:56:36.080Z,20.37
2022-10-19T10:59:27.095Z,20.36
2022-10-19T11:02:10.750Z,20.30
2022-10-19T11:04:52.289Z,20.23
2022-10-19T11:07:30.048Z,20.20
2022-10-19T11:10:13.741Z,20.25
2022-10-19T11:13:21.663Z,20.25
2022-10-19T11:16:05.400Z,20.28
2022-10-19T11:19:12.588Z,20.32
2022-10-19T11:22:17.134Z,20.31
2022-10-19T11:25:46.946Z,20.30
2022-10-19T11:29:10.329Z,20.33
2022-10-19T11:32:17.701Z,20.39
2022-10-19T11:35:15.766Z,20.45
2022-10-19T11:38:22.700Z,20.49
2022-10-19T11:41:49.718Z,20.63
2022-10-19T11:44:55.016Z,20.81
2022-10-19T11:48:21.047Z,20.92
2022-10-19T11:51:37.448Z,21.00
2022-10-19T11:54:44.631Z,21.08
2022-10-19T11:58:05.732Z,21.11
2022-10-19T12:00:56.604Z,21.21
2022-10-19T12:04:06.583Z,21.23
2022-10-19T12:07:22.670Z,21.27
2022-10-19T12:10:38.295Z,21.28
2022-10-19T12:13:19.446Z,21.30
2022-10-19T12:15:55.124Z,21.32
2022-10-19T12:18:46.686Z,21.36
2022-10-19T12:21:32.754Z,21.40
2022-10-19T12:24:13.124Z,21.41
2022-10-19T12:26:45.126Z,21.41
2022-10-19T12:29:29.741Z,21.40
2022-10-19T12:32:00.897Z,21.35
2022-10-19T12:35:17.285Z,21.32
2022-10-19T12:38:43.980Z,21.36
2022-10-19T12:41:54.069Z,21.41
2022-10-19T12:45:11.011Z,21.42
2022-10-19T12:48:06.725Z,21.50
2022-10-19T12:50:54.765Z,21.63
2022-10-19T12:53:50.584Z,21.74
2022-10-19T12:56:29.290Z,21.92
2022-10-19T12:59:02.527Z,22.06
2022-10-19T13:01:44.836Z,22.23
2022-10-19T13:04:36.348Z,22.41
2022-10-19T13:07:11.412Z,22.52
2022-10-19T13:09:49.736Z,22.56
2022-10-19T13:12:25.841Z,22.56
2022-10-19T13:15:05.386Z,22.58
2022-10-19T13:17:43.003Z,22.54
2022-10-19T13:20:17.671Z,22.56
2022-10-19T13:23:03.656Z,22.61
2022-10-19T13:25:39.571Z,22.69
2022-10-19T13:28:07.441Z,22.73
2022-10-19T13:30:46.806Z,22.68
2022-10-19T13:33:29.235Z,22.67
2022-10-19T13:35:59.767Z,22.63
2022-10-19T13:38:59.123Z,22.60
2022-10-19T13:41:45.073Z,22.55
2022-10-19T13:44:18.875Z,22.49
2022-10-19T13:47:01.823Z,22.51
2022-10-19T13:49:49.187Z,22.54
2022-10-19T13:52:44.565Z,22.48
2022-10-19T13:55:43.028Z,22.39
2022-10-19T13:58:33.779Z,22.42
2022-10-19T14:01:04.527Z,22.49
2022-10-19T14:04:30.510Z,22.51
2022-10-19T14:07:19.050Z,22.62
2022-10-19T14:10:14.324Z,22.68
2022-10-19T14:12:44.370Z,22.73
2022-10-19T14:15:28.019Z,22.72
2022-10-19T14:17:57.141Z,22.68
2022-10-19T14:20:30.763Z,22.66
2022-10-19T14:23:20.856Z,22.75
2022-10-19T14:25:55.809Z,22.77
2022-10-19T14:28:24.686Z,22.76
2022-10-19T14:31:05.058Z,22.76
2022-10-19T14:33:40.700Z,22.73
2022-10-19T14:36:17.765Z,22.71
2022-10-19T14:38:47.224Z,22.72
2022-10-19T14:41:29.010Z,22.71
2022-10-19T14:43:58.805Z,22.69
2022-10-19T14:46:34.712Z,22.66
2022-10-19T15:05:36.055Z,21.83
2022-10-19T15:08:11.591Z,22.14
2022-10-19T15:10:48.204Z,22.23
2022-10-19T15:13:41.584Z,22.24
2022-10-19T15:16:39.002Z,22.22
2022-10-19T15:19:37.736Z,22.20
2022-10-19T15:22:14.718Z,22.19
2022-10-19T15:25:29.481Z,22.12
2022-10-19T15:27:57.799Z,22.06
2022-10-19T15:30:32.657Z,22.00
2022-10-19T15:33:10.319Z,21.98
2022-10-19T15:35:41.522Z,21.98
2022-10-19T15:38:23.183Z,21.93
2022-10-19T15:41:02.928Z,21.89
2022-10-19T15:43:30.803Z,21.82
2022-10-19T15:46:20.784Z,21.72
2022-10-19T15:48:55.749Z,21.65
2022-10-19T15:51:23.544Z,21.56
2022-10-19T15:53:57.280Z,21.46
2022-10-19T15:56:28.412Z,21.37
2022-10-19T15:59:00.441Z,21.27
2022-10-19T16:01:32.225Z,21.22
2022-10-19T16:04:02.023Z,21.15
2022-10-19T16:06:35.287Z,21.09
2022-10-19T16:09:11.723Z,21.05
2022-10-19T16:11:46.000Z,20.97
2022-10-19T16:16:47.238Z,20.88
2022-10-19T16:19:18.427Z,20.83
2022-10-19T16:21:50.434Z,20.76
2022-10-19T16:24:23.662Z,20.71
2022-10-19T16:26:56.084Z,20.70
2022-10-19T16:29:28.861Z,20.66
2022-10-19T16:31:57.290Z,20.61
2022-10-19T16:34:25.692Z,20.55
2022-10-19T16:37:06.757Z,20.50
2022-10-19T16:39:35.420Z,20.43
2022-10-19T16:42:03.747Z,20.35
2022-10-19T16:44:31.714Z,20.30
2022-10-19T16:46:59.920Z,20.23
2022-10-19T16:49:27.987Z,20.19
2022-10-19T16:51:57.496Z,20.17
2022-10-19T16:54:32.847Z,20.13
2022-10-19T16:57:00.647Z,20.09
2022-10-19T16:59:28.601Z,20.01
2022-10-19T17:01:56.513Z,19.95
2022-10-19T17:04:25.783Z,19.90
2022-10-19T17:06:53.630Z,19.84
2022-10-19T17:12:10.077Z,19.75
2022-10-19T17:14:41.412Z,19.65
2022-10-19T17:17:11.102Z,19.60
2022-10-19T17:19:39.287Z,19.60
2022-10-19T17:22:07.190Z,19.62
2022-10-19T17:24:37.331Z,19.60
2022-10-19T17:27:05.215Z,19.54
2022-10-19T17:29:33.095Z,19.50
2022-10-19T17:32:00.938Z,19.47
2022-10-19T17:34:28.945Z,19.42
2022-10-19T17:36:57.492Z,19.42
2022-10-19T17:39:29.224Z,19.39
2022-10-19T17:42:02.111Z,19.38
2022-10-19T17:44:31.756Z,19.32
2022-10-19T17:47:01.077Z,19.32
2022-10-19T17:49:30.075Z,19.31
2022-10-19T17:51:58.408Z,19.28
2022-10-19T17:54:26.709Z,19.28
2022-10-19T17:56:54.903Z,19.28
2022-10-19T17:59:34.653Z,19.21
2022-10-19T18:02:10.986Z,19.21
2022-10-19T18:04:39.037Z,19.20
2022-10-19T18:07:06.857Z,19.18
2022-10-19T18:09:34.715Z,19.15
2022-10-19T18:12:05.028Z,19.11
2022-10-19T18:14:35.120Z,19.08
2022-10-19T18:17:02.947Z,19.06
2022-10-19T18:19:30.795Z,19.07
2022-10-19T18:21:58.618Z,19.06
2022-10-19T18:24:26.607Z,19.02
2022-10-19T18:26:54.571Z,19.00
2022-10-19T18:29:25.602Z,18.99
2022-10-19T18:31:54.030Z,19.00
2022-10-19T18:34:25.678Z,18.95
2022-10-19T18:36:54.758Z,18.91
2022-10-19T18:39:23.441Z,18.91
2022-10-19T18:41:54.668Z,18.89
2022-10-19T18:44:27.292Z,18.91
2022-10-19T18:46:57.650Z,18.90
2022-10-19T18:49:26.145Z,18.91
2022-10-19T18:51:55.726Z,18.94
2022-10-19T18:54:26.568Z,19.00
2022-10-19T18:56:55.400Z,19.01
2022-10-19T18:59:23.630Z,19.02
2022-10-19T19:01:51.810Z,19.02
2022-10-19T19:04:19.832Z,18.97
2022-10-19T19:06:48.152Z,18.88
2022-10-19T19:09:17.560Z,18.82
2022-10-19T19:11:45.686Z,18.76
2022-10-19T19:14:17.599Z,18.68
2022-10-19T19:16:46.084Z,18.65
2022-10-19T19:19:17.175Z,18.60
2022-10-19T19:21:46.059Z,18.54
2022-10-19T19:24:19.206Z,18.50
2022-10-19T19:26:54.818Z,18.48
2022-10-19T19:29:24.629Z,18.42
2022-10-19T19:31:53.587Z,18.36
2022-10-19T19:34:22.524Z,18.31
2022-10-19T19:36:50.440Z,18.27
2022-10-19T19:39:21.083Z,18.23
2022-10-19T19:41:50.212Z,18.20
2022-10-19T19:44:19.039Z,18.20
2022-10-19T19:46:46.933Z,18.21
2022-10-19T19:49:16.663Z,18.24
2022-10-19T19:51:44.606Z,18.26
2022-10-19T19:54:12.657Z,18.28
2022-10-19T19:56:42.501Z,18.29
2022-10-19T19:59:12.633Z,18.31
2022-10-19T20:01:41.172Z,18.34
2022-10-19T20:04:10.062Z,18.36
2022-10-19T20:06:40.578Z,18.37
2022-10-19T20:09:09.188Z,18.37
2022-10-19T20:11:42.018Z,18.38
2022-10-19T20:14:12.621Z,18.38
2022-10-19T20:16:40.690Z,18.37
2022-10-19T20:19:13.076Z,18.32
2022-10-19T20:21:41.553Z,18.27
2022-10-19T20:24:10.180Z,18.23
2022-10-19T20:26:38.453Z,18.20
2022-10-19T20:29:06.747Z,18.20
2022-10-19T20:31:39.609Z,18.19
2022-10-19T20:34:10.878Z,18.14
2022-10-19T20:36:38.765Z,18.10
2022-10-19T20:39:06.789Z,18.02
2022-10-19T20:41:34.975Z,17.97
2022-10-19T20:44:02.817Z,17.95
2022-10-19T20:46:32.005Z,17.90
2022-10-19T20:49:02.905Z,17.88
2022-10-19T20:51:35.111Z,17.85
2022-10-19T20:54:06.115Z,17.79
2022-10-19T20:56:36.851Z,17.79
2022-10-19T20:59:15.878Z,17.76
2022-10-19T21:01:45.684Z,17.75
2022-10-19T21:04:15.483Z,17.73
2022-10-19T21:06:50.144Z,17.72
2022-10-19T21:09:23.297Z,17.74
2022-10-19T21:11:52.433Z,17.68
2022-10-19T21:14:28.731Z,17.68
2022-10-19T21:16:58.402Z,17.65
2022-10-19T21:19:28.785Z,17.60
2022-10-19T21:22:03.663Z,17.60
2022-10-19T21:24:35.497Z,17.57
2022-10-19T21:27:09.316Z,17.56
2022-10-19T21:29:37.788Z,17.54
2022-10-19T21:32:06.671Z,17.52
2022-10-19T21:34:34.616Z,17.49
2022-10-19T21:37:02.420Z,17.46
2022-10-19T21:39:30.329Z,17.43
2022-10-19T21:41:58.178Z,17.40
2022-10-19T21:44:26.024Z,17.38
2022-10-19T21:46:53.866Z,17.34
2022-10-19T21:49:21.712Z,17.33
2022-10-19T21:51:56.167Z,17.27
2022-10-19T21:54:25.871Z,17.23
2022-10-19T21:56:55.914Z,17.20
2022-10-19T21:59:24.796Z,17.21
2022-10-19T22:01:54.701Z,17.22
2022-10-19T22:04:23.278Z,17.21
2022-10-19T22:06:51.199Z,17.20
2022-10-19T22:09:21.922Z,17.17
2022-10-19T22:11:49.801Z,17.12
2022-10-19T22:14:18.033Z,17.12
2022-10-19T22:16:45.939Z,17.13
2022-10-19T22:19:14.309Z,17.11
2022-10-19T22:21:42.406Z,17.11
2022-10-19T22:24:14.807Z,17.10
2022-10-19T22:26:47.630Z,17.09
2022-10-19T22:29:15.542Z,17.07
2022-10-19T22:31:43.948Z,17.03
2022-10-19T22:34:16.027Z,17.02
2022-10-19T22:36:44.803Z,16.99
2022-10-19T22:39:13.933Z,17.00
2022-10-19T22:41:41.715Z,16.98
2022-10-19T22:44:09.564Z,16.94
2022-10-19T22:46:37.360Z,16.97
2022-10-19T22:49:05.237Z,16.91
2022-10-19T22:51:33.133Z,16.89
2022-10-19T22:54:01.227Z,16.88
2022-10-19T22:56:29.112Z,16.85
2022-10-19T22:59:01.927Z,16.83
2022-10-19T23:01:29.870Z,16.84
2022-10-19T23:03:58.063Z,16.82
2022-10-19T23:06:26.135Z,16.82
2022-10-19T23:08:54.607Z,16.77
2022-10-19T23:11:23.162Z,16.71
2022-10-19T23:13:51.231Z,16.69
2022-10-19T23:16:19.166Z,16.64
2022-10-19T23:18:47.091Z,16.60
2022-10-19T23:21:15.683Z,16.57
2022-10-19T23:23:43.580Z,16.52
2022-10-19T23:26:21.029Z,16.47
2022-10-19T23:28:50.803Z,16.43
2022-10-19T23:31:26.186Z,16.42
2022-10-19T23:33:54.897Z,16.37
2022-10-19T23:36:28.829Z,16.38
2022-10-19T23:38:58.660Z,16.37
2022-10-19T23:41:27.045Z,16.35
2022-10-19T23:43:54.874Z,16.32
2022-10-19T23:46:22.784Z,16.34
2022-10-19T23:48:50.632Z,16.33
2022-10-19T23:51:20.840Z,16.33
2022-10-19T23:53:52.215Z,16.31
2022-10-19T23:56:29.472Z,16.31
2022-10-19T23:58:57.458Z,16.31
